Time;durP1;ratioP1;P1;durP2;ratioP2;P2;SDS_P1;SDS_P2;PMS_P1;PMS_P2;Temp;Humidity;BMP_temperature;BMP_pressure;BME280_temperature;BME280_humidity;BME280_pressure;Samples;Min_cycle;Max_cycle;Signal;HPM_P1;HPM_P2
2022/07/20 00:00:24;;;;;;;3.90;1.98;;;24.70;89.00;;;;;;5022483;28;20022;-74
2022/07/20 00:02:50;;;;;;;2.15;1.80;;;24.70;88.50;;;;;;5022547;28;20024;-74
2022/07/20 00:05:15;;;;;;;2.95;1.30;;;24.70;88.80;;;;;;5022034;28;20073;-74
2022/07/20 00:07:41;;;;;;;8.15;2.13;;;24.60;88.50;;;;;;5022166;28;20022;-73
2022/07/20 00:12:51;;;;;;;6.03;2.35;;;24.60;88.50;;;;;;5021831;28;20033;-73
2022/07/20 00:15:16;;;;;;;2.72;1.80;;;24.50;88.30;;;;;;5021989;28;20021;-73
2022/07/20 00:17:42;;;;;;;3.05;1.50;;;24.50;88.80;;;;;;5021744;28;20041;-73
2022/07/20 00:20:10;;;;;;;3.85;1.85;;;24.50;88.80;;;;;;5021699;28;20036;-73
2022/07/20 00:22:37;;;;;;;2.47;1.42;;;24.40;89.30;;;;;;5021708;28;20030;-73
2022/07/20 00:25:04;;;;;;;5.65;2.05;;;24.40;88.90;;;;;;5021269;28;20048;-73
2022/07/20 00:27:29;;;;;;;2.65;1.58;;;24.30;89.10;;;;;;5021585;28;20022;-73
2022/07/20 00:29:55;;;;;;;3.42;2.10;;;24.30;88.80;;;;;;5021749;28;20022;-74
2022/07/20 00:32:21;;;;;;;3.60;1.90;;;24.30;89.10;;;;;;5003482;28;20105;-74
2022/07/20 00:34:47;;;;;;;1.95;1.40;;;24.20;89.10;;;;;;5021968;28;20060;-74
2022/07/20 00:37:13;;;;;;;3.20;1.75;;;24.20;89.50;;;;;;5021845;28;20073;-73
2022/07/20 00:39:39;;;;;;;2.17;1.58;;;24.10;89.00;;;;;;5021641;28;20030;-73
2022/07/20 00:42:05;;;;;;;3.08;1.75;;;24.10;89.50;;;;;;5021055;28;20061;-73
2022/07/20 00:44:31;;;;;;;7.85;1.95;;;24.10;89.30;;;;;;5021216;28;20120;-73
2022/07/20 00:46:56;;;;;;;4.18;1.88;;;24.10;89.30;;;;;;5021461;28;20694;-74
2022/07/20 00:49:22;;;;;;;2.65;1.63;;;24.10;89.40;;;;;;5021635;28;20030;-73
2022/07/20 00:51:49;;;;;;;2.92;1.90;;;24.00;89.50;;;;;;5021470;28;20025;-73
2022/07/20 00:54:15;;;;;;;1.92;1.48;;;24.00;89.40;;;;;;5021089;28;20049;-74
2022/07/20 00:56:40;;;;;;;3.60;1.63;;;24.00;89.40;;;;;;5021834;28;20034;-72
2022/07/20 00:59:08;;;;;;;3.22;1.88;;;23.90;89.40;;;;;;5021720;28;20038;-73
2022/07/20 01:01:34;;;;;;;4.28;1.45;;;23.90;89.60;;;;;;5021384;28;20052;-73
2022/07/20 01:04:01;;;;;;;2.42;1.42;;;23.80;89.50;;;;;;5021028;28;20033;-72
2022/07/20 01:06:27;;;;;;;2.17;1.42;;;23.80;89.60;;;;;;5021382;28;20029;-73
2022/07/20 01:08:53;;;;;;;2.30;1.70;;;23.80;89.60;;;;;;5020632;28;20112;-72
2022/07/20 01:11:20;;;;;;;5.05;2.28;;;23.80;89.80;;;;;;5021510;28;20033;-73
2022/07/20 01:13:46;;;;;;;2.88;1.80;;;23.70;89.80;;;;;;5003692;28;20030;-73
2022/07/20 01:16:11;;;;;;;9.32;2.35;;;23.70;89.60;;;;;;5020894;28;20032;-72
2022/07/20 01:18:37;;;;;;;2.58;1.85;;;23.60;90.00;;;;;;5023630;28;20026;-72
2022/07/20 01:21:04;;;;;;;3.90;2.08;;;23.60;90.00;;;;;;5007690;28;20153;-72
2022/07/20 01:23:30;;;;;;;2.95;1.83;;;23.60;89.90;;;;;;5024525;28;20038;-72
2022/07/20 01:25:56;;;;;;;2.63;1.95;;;23.50;90.40;;;;;;5025389;28;20026;-72
2022/07/20 01:28:23;;;;;;;4.28;1.70;;;23.50;90.40;;;;;;5025162;28;20046;-72
2022/07/20 01:30:49;;;;;;;2.88;1.67;;;23.40;90.40;;;;;;5025228;28;20030;-73
2022/07/20 01:33:15;;;;;;;3.40;2.22;;;23.40;90.50;;;;;;5024818;28;20049;-73
2022/07/20 01:35:41;;;;;;;4.05;1.80;;;23.30;90.30;;;;;;5025389;28;20049;-72
2022/07/20 01:38:06;;;;;;;5.60;1.50;;;23.30;90.40;;;;;;5024995;28;20021;-74
2022/07/20 01:40:32;;;;;;;3.40;1.77;;;23.20;90.50;;;;;;5024744;28;20049;-73
2022/07/20 01:42:58;;;;;;;2.45;1.48;;;23.20;90.80;;;;;;5024298;28;20018;-71
2022/07/20 01:45:23;;;;;;;3.10;1.92;;;23.20;90.60;;;;;;5024198;28;20091;-73
2022/07/20 01:47:49;;;;;;;10.57;1.75;;;23.20;90.70;;;;;;5025060;28;20072;-73
2022/07/20 01:50:15;;;;;;;2.78;1.60;;;23.10;90.70;;;;;;5006779;28;20064;-73
2022/07/20 01:52:40;;;;;;;2.63;1.55;;;23.10;90.90;;;;;;5024626;28;20061;-74
2022/07/20 01:55:06;;;;;;;4.25;1.90;;;23.10;91.00;;;;;;5024877;28;20018;-73
2022/07/20 01:57:32;;;;;;;2.45;1.45;;;23.10;90.90;;;;;;5024282;28;20034;-73
2022/07/20 01:59:58;;;;;;;3.60;1.90;;;23.10;90.70;;;;;;5024116;28;20049;-73
2022/07/20 02:02:23;;;;;;;3.35;1.75;;;23.00;91.10;;;;;;5024390;28;20474;-73
2022/07/20 02:04:49;;;;;;;7.25;2.30;;;23.00;91.00;;;;;;5024578;28;20144;-73
2022/07/20 02:07:14;;;;;;;5.13;1.55;;;23.00;90.90;;;;;;5023890;28;20040;-73
2022/07/20 02:09:40;;;;;;;3.97;1.92;;;23.00;90.90;;;;;;5023517;28;20644;-73
2022/07/20 02:12:06;;;;;;;3.40;1.73;;;22.90;91.00;;;;;;5023506;28;20109;-72
2022/07/20 02:14:32;;;;;;;8.32;2.67;;;22.90;91.00;;;;;;5024205;28;20033;-73
2022/07/20 02:16:57;;;;;;;3.33;2.05;;;22.90;91.10;;;;;;5024483;28;20045;-73
2022/07/20 02:19:23;;;;;;;2.45;1.30;;;22.80;91.00;;;;;;5023553;28;20025;-74
2022/07/20 02:21:48;;;;;;;2.88;1.80;;;22.80;91.20;;;;;;5024316;28;21019;-73
2022/07/20 02:24:14;;;;;;;2.65;1.92;;;22.70;91.40;;;;;;5024209;28;20034;-74
2022/07/20 02:26:39;;;;;;;3.47;1.88;;;22.60;91.60;;;;;;5024282;28;20026;-73
2022/07/20 02:29:05;;;;;;;6.05;1.75;;;22.50;91.80;;;;;;5022848;28;20553;-73
2022/07/20 02:31:31;;;;;;;3.70;1.67;;;22.50;91.80;;;;;;5023678;28;20054;-73
2022/07/20 02:33:56;;;;;;;3.38;1.40;;;22.50;92.00;;;;;;5024042;28;20064;-73
2022/07/20 02:36:22;;;;;;;3.33;1.95;;;22.40;92.10;;;;;;5023741;28;20061;-73
2022/07/20 02:38:47;;;;;;;3.70;1.67;;;22.40;92.10;;;;;;5024164;28;20044;-73
2022/07/20 02:41:13;;;;;;;4.97;2.10;;;22.40;92.00;;;;;;5023051;28;20517;-73
2022/07/20 02:43:39;;;;;;;2.92;1.98;;;22.30;92.10;;;;;;5006189;28;20050;-73
2022/07/20 02:46:05;;;;;;;2.67;1.65;;;22.30;92.30;;;;;;5023780;28;20021;-73
2022/07/20 02:48:31;;;;;;;4.68;1.90;;;22.30;92.30;;;;;;5022965;28;20061;-73
2022/07/20 02:50:57;;;;;;;5.05;2.08;;;22.20;92.30;;;;;;5023092;28;20026;-73
2022/07/20 02:53:23;;;;;;;2.47;1.30;;;22.20;92.60;;;;;;5005925;28;20033;-73
2022/07/20 02:55:49;;;;;;;3.08;1.55;;;22.10;92.80;;;;;;5022242;28;20025;-73
2022/07/20 02:58:15;;;;;;;4.38;1.63;;;22.10;92.90;;;;;;5023989;28;20053;-73
2022/07/20 03:00:41;;;;;;;3.08;1.77;;;22.10;92.80;;;;;;5023168;28;20026;-73
2022/07/20 03:03:07;;;;;;;4.30;1.55;;;22.00;92.70;;;;;;5023322;28;20644;-72
2022/07/20 03:05:34;;;;;;;9.80;1.77;;;22.00;92.60;;;;;;5023518;28;20022;-73
2022/07/20 03:08:00;;;;;;;6.38;2.40;;;22.00;92.60;;;;;;5023222;28;20052;-73
2022/07/20 03:10:26;;;;;;;2.35;1.60;;;22.00;92.80;;;;;;5023145;28;20049;-73
2022/07/20 03:12:52;;;;;;;2.75;1.70;;;22.00;93.00;;;;;;5023330;28;20033;-73
2022/07/20 03:15:18;;;;;;;5.00;1.50;;;21.90;92.90;;;;;;5022832;28;20022;-72
2022/07/20 03:17:46;;;;;;;3.30;2.15;;;21.90;93.00;;;;;;5023508;28;20026;-73
2022/07/20 03:20:14;;;;;;;3.25;1.73;;;21.90;92.90;;;;;;5023234;28;20084;-72
2022/07/20 03:22:40;;;;;;;4.60;2.03;;;21.90;92.80;;;;;;5021215;28;20037;-72
2022/07/20 03:25:06;;;;;;;3.67;1.52;;;21.90;93.00;;;;;;5022022;28;20037;-73
2022/07/20 03:27:32;;;;;;;5.57;2.08;;;21.80;93.30;;;;;;5021547;28;20164;-73
2022/07/20 03:29:58;;;;;;;2.58;1.77;;;21.80;93.10;;;;;;5021154;28;20382;-73
2022/07/20 03:32:23;;;;;;;3.45;2.03;;;21.80;93.10;;;;;;5022690;28;20073;-72
2022/07/20 03:34:49;;;;;;;3.08;1.70;;;21.80;93.00;;;;;;5023107;28;20037;-73
2022/07/20 03:37:14;;;;;;;1.52;1.27;;;21.80;93.00;;;;;;5022555;28;20026;-73
2022/07/20 03:39:40;;;;;;;4.13;2.30;;;21.80;93.10;;;;;;5023005;28;20050;-73
2022/07/20 03:42:05;;;;;;;3.95;2.00;;;21.80;93.10;;;;;;5022467;28;20516;-73
2022/07/20 03:44:31;;;;;;;3.38;2.35;;;21.80;93.20;;;;;;5022177;28;20033;-72
2022/07/20 03:46:56;;;;;;;10.77;1.88;;;21.80;93.20;;;;;;5022824;28;20025;-72
2022/07/20 03:49:22;;;;;;;2.60;1.67;;;21.80;93.20;;;;;;5004275;28;20030;-73
2022/07/20 03:51:48;;;;;;;2.83;1.95;;;21.80;93.80;;;;;;5021219;28;20032;-73
2022/07/20 03:54:14;;;;;;;2.33;1.67;;;21.80;93.80;;;;;;5023000;28;20041;-73
2022/07/20 03:56:40;;;;;;;2.47;1.60;;;21.70;93.70;;;;;;5022506;28;20025;-72
2022/07/20 03:59:07;;;;;;;3.92;2.05;;;21.70;93.80;;;;;;5022060;28;20030;-72
2022/07/20 04:01:33;;;;;;;5.15;2.28;;;21.70;93.90;;;;;;5022322;28;20032;-73
2022/07/20 04:03:58;;;;;;;5.70;1.67;;;21.60;93.70;;;;;;5021305;28;20081;-73
2022/07/20 04:06:24;;;;;;;4.20;1.30;;;21.60;93.70;;;;;;5022399;28;20026;-73
2022/07/20 04:08:50;;;;;;;4.57;1.90;;;21.70;94.10;;;;;;5021336;28;20160;-72
2022/07/20 04:11:16;;;;;;;3.78;1.80;;;21.60;94.20;;;;;;5022296;28;20104;-72
2022/07/20 04:13:41;;;;;;;3.35;2.08;;;21.70;94.20;;;;;;5022089;28;20128;-72
2022/07/20 04:16:07;;;;;;;3.03;1.85;;;21.60;94.30;;;;;;5022207;28;20455;-73
2022/07/20 04:18:33;;;;;;;3.25;1.67;;;21.60;94.40;;;;;;5022168;28;20612;-73
2022/07/20 04:20:58;;;;;;;2.90;2.10;;;21.60;94.50;;;;;;5022143;28;20025;-72
2022/07/20 04:23:24;;;;;;;7.38;2.28;;;21.60;94.70;;;;;;5022649;28;20034;-72
2022/07/20 04:25:49;;;;;;;4.75;2.10;;;21.60;94.70;;;;;;5021962;28;20093;-72
2022/07/20 04:28:16;;;;;;;5.40;2.22;;;21.60;94.50;;;;;;5004230;28;20018;-73
2022/07/20 04:30:41;;;;;;;11.73;1.45;;;21.60;94.30;;;;;;5021209;28;20026;-73
2022/07/20 04:33:11;;;;;;;4.60;1.92;;;21.70;94.20;;;;;;5020575;28;20098;-74
2022/07/20 04:35:37;;;;;;;2.40;1.80;;;21.70;94.70;;;;;;5019582;28;20061;-72
2022/07/20 04:38:03;;;;;;;4.38;1.90;;;21.70;95.00;;;;;;5021439;28;20033;-73
2022/07/20 04:40:28;;;;;;;4.22;2.63;;;21.70;95.00;;;;;;5004132;28;20092;-73
2022/07/20 04:42:54;;;;;;;4.10;2.25;;;21.70;94.80;;;;;;5021314;28;20033;-73
2022/07/20 04:45:20;;;;;;;1.63;1.30;;;21.80;95.00;;;;;;5021326;28;20022;-73
2022/07/20 04:47:46;;;;;;;5.57;2.45;;;21.80;94.80;;;;;;5021843;28;20030;-75
2022/07/20 04:50:12;;;;;;;2.17;1.92;;;21.90;94.70;;;;;;5022327;28;20457;-73
2022/07/20 04:52:38;;;;;;;3.05;1.73;;;21.80;94.60;;;;;;5020801;28;20064;-74
2022/07/20 04:55:04;;;;;;;3.22;1.60;;;21.90;94.40;;;;;;5021117;28;20053;-73
2022/07/20 04:57:29;;;;;;;8.98;1.80;;;22.00;94.50;;;;;;5021928;28;20038;-72
2022/07/20 04:59:55;;;;;;;3.75;2.03;;;22.10;94.50;;;;;;5020823;28;20030;-73
2022/07/20 05:02:20;;;;;;;2.83;1.90;;;22.10;94.50;;;;;;5021220;28;20029;-73
2022/07/20 05:04:46;;;;;;;4.40;2.10;;;22.20;93.90;;;;;;5022234;28;20030;-74
2022/07/20 05:07:13;;;;;;;2.97;1.80;;;22.20;93.50;;;;;;5020570;28;20040;-73
2022/07/20 05:09:39;;;;;;;4.35;2.05;;;22.30;93.30;;;;;;5020811;28;20050;-74
2022/07/20 05:12:06;;;;;;;2.88;1.92;;;22.40;93.30;;;;;;5021058;28;20065;-75
2022/07/20 05:14:31;;;;;;;5.43;1.98;;;22.40;93.40;;;;;;5002188;28;20064;-73
2022/07/20 05:16:57;;;;;;;3.40;1.58;;;22.50;92.90;;;;;;5003504;28;20105;-73
2022/07/20 05:19:23;;;;;;;4.80;2.65;;;22.60;92.80;;;;;;5002477;28;20041;-74
2022/07/20 05:21:49;;;;;;;7.80;1.98;;;22.60;92.90;;;;;;5020701;28;20038;-74
2022/07/20 05:24:15;;;;;;;4.60;1.88;;;22.70;92.50;;;;;;5021150;28;20097;-74
2022/07/20 05:26:40;;;;;;;6.18;2.10;;;22.70;92.50;;;;;;5020779;28;20034;-72
2022/07/20 05:29:06;;;;;;;4.00;2.22;;;22.80;92.40;;;;;;5002348;28;20442;-73
2022/07/20 05:31:32;;;;;;;5.90;2.17;;;22.80;92.20;;;;;;5003261;28;20509;-73
2022/07/20 05:33:58;;;;;;;3.40;1.83;;;22.90;92.20;;;;;;5020826;28;20049;-73
2022/07/20 05:36:23;;;;;;;4.07;1.80;;;22.90;92.10;;;;;;5004050;28;20029;-73
2022/07/20 05:38:49;;;;;;;2.30;1.60;;;22.90;92.00;;;;;;5021920;28;20061;-74
2022/07/20 05:41:16;;;;;;;7.45;2.08;;;23.00;92.00;;;;;;5021654;28;20033;-73
2022/07/20 05:43:41;;;;;;;3.70;1.88;;;23.00;91.90;;;;;;5020657;28;20049;-73
2022/07/20 05:46:07;;;;;;;2.88;1.92;;;23.00;91.90;;;;;;5021652;28;20041;-74
2022/07/20 05:48:34;;;;;;;6.07;2.65;;;23.10;91.80;;;;;;5021343;28;20026;-72
2022/07/20 05:50:59;;;;;;;3.47;2.08;;;23.10;91.70;;;;;;5021182;28;20033;-73
2022/07/20 05:53:25;;;;;;;3.85;2.00;;;23.10;91.80;;;;;;5021609;28;20034;-73
2022/07/20 05:55:51;;;;;;;5.07;2.13;;;23.20;91.80;;;;;;5020926;28;20076;-75
2022/07/20 05:58:16;;;;;;;3.42;2.20;;;23.20;91.90;;;;;;5021821;28;20038;-72
2022/07/20 06:00:42;;;;;;;2.65;1.83;;;23.30;91.90;;;;;;5020176;28;20026;-72
2022/07/20 06:03:08;;;;;;;5.05;2.08;;;23.30;91.90;;;;;;5020466;28;20033;-72
2022/07/20 06:05:34;;;;;;;6.45;2.38;;;23.40;92.00;;;;;;5024484;28;20033;-73
2022/07/20 06:08:01;;;;;;;5.63;2.47;;;23.40;92.20;;;;;;5021984;28;20030;-71
2022/07/20 06:10:28;;;;;;;2.85;2.17;;;23.40;92.30;;;;;;5022398;28;20060;-73
2022/07/20 06:12:55;;;;;;;4.88;2.22;;;23.50;92.50;;;;;;5023150;28;20030;-72
2022/07/20 06:15:22;;;;;;;3.35;2.13;;;23.50;92.60;;;;;;5006263;28;20494;-70
2022/07/20 06:17:55;;;;;;;10.70;2.33;;;23.60;92.80;;;;;;5023595;28;20048;-72
2022/07/20 06:20:22;;;;;;;4.72;2.03;;;23.60;93.00;;;;;;5023744;28;20026;-72
2022/07/20 06:22:48;;;;;;;8.07;2.33;;;23.60;93.20;;;;;;5024076;28;20082;-70
2022/07/20 06:25:15;;;;;;;4.45;2.17;;;23.70;93.50;;;;;;5025005;28;20061;-73
2022/07/20 06:27:42;;;;;;;6.72;2.60;;;23.80;93.70;;;;;;5024548;28;20034;-71
2022/07/20 06:30:11;;;;;;;4.63;1.88;;;23.80;93.90;;;;;;5023244;28;20115;-71
2022/07/20 06:32:37;;;;;;;3.15;1.70;;;23.90;94.10;;;;;;5024345;28;20480;-71
2022/07/20 06:35:04;;;;;;;4.95;2.47;;;23.90;94.30;;;;;;5023917;28;20478;-72
2022/07/20 06:37:30;;;;;;;2.63;1.85;;;24.10;94.40;;;;;;5023496;28;20044;-72
2022/07/20 06:39:56;;;;;;;9.43;3.35;;;24.10;94.60;;;;;;5022347;28;20034;-71
2022/07/20 06:42:22;;;;;;;6.68;2.35;;;24.20;94.80;;;;;;5023594;28;20502;-70
2022/07/20 06:44:49;;;;;;;5.93;1.70;;;24.30;94.70;;;;;;5023335;28;20160;-73
2022/07/20 06:47:16;;;;;;;4.90;2.35;;;24.40;94.70;;;;;;5024388;28;20033;-72
2022/07/20 06:49:42;;;;;;;5.97;2.20;;;24.50;94.60;;;;;;5022082;28;20030;-72
2022/07/20 06:52:08;;;;;;;14.65;1.67;;;24.60;94.80;;;;;;5023543;28;20030;-71
2022/07/20 06:54:34;;;;;;;3.70;2.28;;;24.70;94.10;;;;;;5022335;28;20081;-72
2022/07/20 06:57:00;;;;;;;3.63;1.80;;;24.80;94.10;;;;;;5021852;28;20034;-71
2022/07/20 06:59:25;;;;;;;8.10;1.58;;;24.90;94.40;;;;;;5022236;28;20076;-70
2022/07/20 07:01:52;;;;;;;4.07;2.17;;;25.10;93.90;;;;;;5022205;28;20034;-72
2022/07/20 07:04:17;;;;;;;2.65;1.88;;;25.20;93.90;;;;;;5023278;28;20062;-71
2022/07/20 07:06:43;;;;;;;3.15;2.05;;;25.20;93.40;;;;;;5023863;28;20042;-74
2022/07/20 07:09:09;;;;;;;4.10;1.83;;;25.40;93.30;;;;;;5023644;28;20113;-71
2022/07/20 07:11:35;;;;;;;14.70;2.47;;;25.50;93.20;;;;;;5004988;28;20026;-70
2022/07/20 07:14:01;;;;;;;2.97;1.88;;;25.60;93.20;;;;;;5023649;28;20049;-70
2022/07/20 07:16:27;;;;;;;8.75;2.05;;;25.70;93.20;;;;;;5022305;28;20113;-71
2022/07/20 07:18:53;;;;;;;3.03;1.75;;;25.80;93.00;;;;;;5022137;28;20050;-71
2022/07/20 07:21:18;;;;;;;2.28;1.70;;;25.90;92.90;;;;;;5023549;28;20034;-72
2022/07/20 07:23:49;;;;;;;3.92;2.35;;;26.00;92.90;;;;;;5023135;28;20533;-71
2022/07/20 07:26:15;;;;;;;3.80;1.80;;;26.10;93.00;;;;;;5020011;28;20036;-73
2022/07/20 07:28:41;;;;;;;4.00;1.77;;;26.20;93.10;;;;;;5019995;28;20073;-72
2022/07/20 07:31:06;;;;;;;3.03;2.03;;;26.30;93.00;;;;;;5021217;28;20042;-71
2022/07/20 07:33:32;;;;;;;3.50;2.05;;;26.40;93.30;;;;;;5020485;28;20064;-72
2022/07/20 07:35:58;;;;;;;3.38;1.58;;;26.50;93.30;;;;;;5020906;28;20030;-72
2022/07/20 07:38:23;;;;;;;6.95;2.42;;;26.60;93.40;;;;;;5021393;28;20085;-72
2022/07/20 07:40:49;;;;;;;3.72;2.00;;;26.80;93.00;;;;;;5020739;28;20390;-74
2022/07/20 07:43:15;;;;;;;4.07;1.85;;;26.90;92.90;;;;;;5023263;28;20037;-74
2022/07/20 07:45:40;;;;;;;5.35;2.05;;;27.00;92.40;;;;;;5018460;28;20030;-71
2022/07/20 07:48:09;;;;;;;5.72;2.45;;;27.10;92.50;;;;;;5017318;28;20026;-69
2022/07/20 07:50:37;;;;;;;8.70;2.15;;;27.20;92.30;;;;;;5017505;28;20033;-70
2022/07/20 07:53:08;;;;;;;3.33;1.75;;;27.30;92.50;;;;;;5016732;28;20022;-72
2022/07/20 07:55:35;;;;;;;1.95;1.75;;;27.50;92.10;;;;;;5020110;28;20038;-72
2022/07/20 07:58:04;;;;;;;4.35;1.90;;;27.60;92.20;;;;;;5022216;28;20022;-72
2022/07/20 08:00:29;;;;;;;10.73;2.22;;;27.80;92.30;;;;;;5022620;28;20045;-72
2022/07/20 08:02:55;;;;;;;2.83;1.80;;;27.90;92.20;;;;;;5021387;28;20030;-71
2022/07/20 08:05:22;;;;;;;3.08;2.08;;;28.00;92.30;;;;;;5016855;28;20053;-73
2022/07/20 08:07:48;;;;;;;3.20;2.00;;;28.10;92.10;;;;;;5016912;28;20026;-73
2022/07/20 08:10:14;;;;;;;2.42;1.70;;;28.30;92.00;;;;;;5020977;28;20054;-75
2022/07/20 08:12:39;;;;;;;13.13;2.55;;;28.40;91.90;;;;;;5022358;28;20528;-75
2022/07/20 08:15:06;;;;;;;4.38;1.70;;;28.60;91.20;;;;;;5022926;28;20033;-72
2022/07/20 08:17:32;;;;;;;3.53;2.08;;;28.70;91.40;;;;;;5022743;28;20106;-72
2022/07/20 08:19:58;;;;;;;6.00;2.25;;;28.80;91.30;;;;;;5021361;28;20032;-73
2022/07/20 08:22:23;;;;;;;2.97;1.60;;;28.90;91.10;;;;;;5022440;28;20077;-76
2022/07/20 08:24:49;;;;;;;7.68;1.83;;;28.90;90.70;;;;;;5022643;28;20041;-72
2022/07/20 08:27:15;;;;;;;3.05;1.90;;;29.10;90.70;;;;;;5020178;28;20030;-74
2022/07/20 08:29:40;;;;;;;2.17;1.48;;;29.20;90.70;;;;;;5022275;28;20022;-72
2022/07/20 08:32:06;;;;;;;5.03;2.33;;;29.30;90.50;;;;;;5022415;28;20390;-73
2022/07/20 08:34:31;;;;;;;8.40;1.73;;;29.40;90.30;;;;;;5020430;28;20037;-73
2022/07/20 08:36:57;;;;;;;8.07;2.65;;;29.60;90.20;;;;;;5020188;28;20022;-70
2022/07/20 08:39:22;;;;;;;4.40;1.60;;;29.70;90.20;;;;;;5002575;28;20037;-71
2022/07/20 08:41:49;;;;;;;7.93;1.73;;;29.80;90.00;;;;;;5021559;28;20052;-70
2022/07/20 08:44:15;;;;;;;6.90;2.33;;;30.00;90.00;;;;;;5018250;28;20109;-74
2022/07/20 08:46:44;;;;;;;2.10;1.60;;;30.10;90.00;;;;;;5017595;28;20117;-71
2022/07/20 08:49:12;;;;;;;2.13;1.48;;;30.20;90.20;;;;;;5021089;28;20022;-71
2022/07/20 08:51:39;;;;;;;3.65;1.95;;;30.30;90.10;;;;;;5020547;28;20057;-72
2022/07/20 08:54:05;;;;;;;3.70;2.05;;;30.40;90.10;;;;;;5019539;28;20056;-71
2022/07/20 08:56:31;;;;;;;4.55;1.67;;;30.50;90.00;;;;;;5018286;28;20038;-73
2022/07/20 08:58:57;;;;;;;3.45;2.17;;;30.70;89.80;;;;;;5020832;28;20021;-71
2022/07/20 09:01:23;;;;;;;8.77;2.25;;;30.80;89.60;;;;;;5019659;28;20112;-72
2022/07/20 09:04:11;;;;;;;4.45;1.70;;;31.00;90.00;;;;;;5001154;28;20054;-73
2022/07/20 09:06:49;;;;;;;2.20;1.48;;;31.30;88.70;;;;;;5020695;28;20609;-72
2022/07/20 09:09:16;;;;;;;5.90;1.50;;;31.50;89.80;;;;;;5020049;28;20085;-73
2022/07/20 09:11:41;;;;;;;2.85;1.50;;;31.70;90.10;;;;;;5020160;28;20041;-71
2022/07/20 09:14:07;;;;;;;6.53;1.40;;;31.90;88.40;;;;;;5020047;28;20050;-77
2022/07/20 09:16:43;;;;;;;5.25;1.60;;;32.20;86.70;;;;;;5019964;28;20030;-72
2022/07/20 09:19:09;;;;;;;2.65;1.83;;;32.30;87.50;;;;;;5021707;28;20025;-77
2022/07/20 09:21:34;;;;;;;2.63;1.63;;;32.40;86.50;;;;;;5021877;28;20383;-73
2022/07/20 09:24:05;;;;;;;7.80;1.73;;;32.60;84.60;;;;;;5020282;28;20022;-76
2022/07/20 09:26:31;;;;;;;3.78;1.75;;;32.70;82.80;;;;;;5003838;28;20038;-74
2022/07/20 09:28:59;;;;;;;1.98;1.27;;;32.80;83.80;;;;;;5021129;28;20026;-75
2022/07/20 09:31:33;;;;;;;6.28;1.27;;;32.90;82.30;;;;;;5020785;28;20057;-73
2022/07/20 09:34:07;;;;;;;15.43;2.05;;;33.00;82.30;;;;;;5021441;28;20030;-73
2022/07/20 09:36:41;;;;;;;2.28;1.30;;;33.20;80.20;;;;;;5003082;28;20461;-75
2022/07/20 09:39:08;;;;;;;;;;;33.30;79.00;;;;;;5021553;28;20430;-73
2022/07/20 09:41:35;;;;;;;14.10;1.67;;;33.40;77.00;;;;;;5025180;28;19921;-72
2022/07/20 09:44:02;;;;;;;4.80;1.85;;;33.50;79.30;;;;;;5025040;28;20054;-75
2022/07/20 09:46:32;;;;;;;3.28;1.35;;;33.60;79.50;;;;;;5024402;28;20022;-73
2022/07/20 09:49:01;;;;;;;2.25;1.27;;;33.70;79.50;;;;;;5022740;28;20126;-73
2022/07/20 09:51:33;;;;;;;2.40;1.20;;;33.80;79.00;;;;;;5023432;28;20022;-74
2022/07/20 09:54:03;;;;;;;2.75;1.13;;;33.90;76.70;;;;;;5023433;28;20034;-74
2022/07/20 09:56:30;;;;;;;2.00;1.27;;;34.00;76.40;;;;;;5005857;28;20060;-73
2022/07/20 09:58:59;;;;;;;2.72;1.20;;;34.10;77.20;;;;;;5004339;28;20042;-76
2022/07/20 10:01:27;;;;;;;2.55;1.58;;;34.20;77.00;;;;;;5005510;28;20052;-74
2022/07/20 10:03:55;;;;;;;1.48;1.00;;;34.30;76.50;;;;;;5004118;28;20198;-75
2022/07/20 10:06:23;;;;;;;1.33;1.05;;;34.40;76.30;;;;;;5023661;28;20029;-72
2022/07/20 10:08:49;;;;;;;4.55;1.73;;;34.40;73.20;;;;;;5023010;28;20053;-76
2022/07/20 10:11:17;;;;;;;3.03;1.02;;;34.50;74.90;;;;;;5023244;28;20022;-76
2022/07/20 10:13:44;;;;;;;5.40;1.83;;;34.60;74.20;;;;;;5022159;28;20440;-73
2022/07/20 10:16:27;;;;;;;3.08;1.60;;;34.60;74.30;;;;;;5023502;28;20038;-74
2022/07/20 10:18:54;;;;;;;1.63;1.25;;;34.70;73.70;;;;;;5003751;28;20037;-72
2022/07/20 10:21:43;;;;;;;3.67;0.90;;;34.80;73.50;;;;;;5022504;28;20022;-76
2022/07/20 10:24:22;;;;;;;2.78;1.38;;;34.90;70.10;;;;;;5005229;28;20044;-75
2022/07/20 10:27:07;;;;;;;1.67;1.30;;;34.90;73.10;;;;;;5022262;28;20030;-74
2022/07/20 10:29:37;;;;;;;3.88;1.33;;;35.00;73.80;;;;;;5023105;28;20030;-74
2022/07/20 10:32:16;;;;;;;3.10;1.17;;;35.10;72.90;;;;;;5022735;28;20025;-76
2022/07/20 10:34:47;;;;;;;2.70;1.52;;;35.20;70.40;;;;;;5022823;28;20099;-72
2022/07/20 10:37:26;;;;;;;3.25;1.20;;;35.30;70.40;;;;;;5023550;28;20041;-73
2022/07/20 10:40:03;;;;;;;3.00;1.10;;;35.40;69.40;;;;;;5022314;28;20478;-76
2022/07/20 10:42:34;;;;;;;2.03;0.95;;;35.50;69.50;;;;;;5002465;28;20030;-73
2022/07/20 10:47:48;;;;;;;0.80;0.68;;;35.70;67.60;;;;;;5020971;28;20037;-75
2022/07/20 10:50:22;;;;;;;6.10;1.50;;;35.70;69.40;;;;;;5002531;28;20042;-75
2022/07/20 10:52:50;;;;;;;8.93;1.55;;;35.80;68.80;;;;;;5003655;28;20030;-74
2022/07/20 10:55:34;;;;;;;2.88;1.33;;;35.90;67.20;;;;;;5021108;28;20038;-73
2022/07/20 10:58:05;;;;;;;2.75;1.30;;;36.00;65.40;;;;;;5020978;28;20026;-72
2022/07/20 11:00:36;;;;;;;5.93;1.25;;;36.00;66.70;;;;;;5022357;28;20097;-71
2022/07/20 11:03:19;;;;;;;2.38;1.08;;;36.10;66.50;;;;;;5021290;28;20045;-72
2022/07/20 11:05:46;;;;;;;2.78;1.10;;;36.20;64.30;;;;;;5022687;28;20040;-73
2022/07/20 11:08:13;;;;;;;3.13;1.83;;;36.20;64.50;;;;;;5022021;28;20520;-73
2022/07/20 11:10:43;;;;;;;8.23;1.50;;;36.20;65.60;;;;;;5020510;28;20053;-73
2022/07/20 11:13:11;;;;;;;1.50;1.13;;;36.30;66.00;;;;;;5020195;28;20029;-73
2022/07/20 11:15:39;;;;;;;2.30;1.40;;;36.40;65.20;;;;;;5021931;28;20041;-76
2022/07/20 11:18:07;;;;;;;8.70;1.27;;;36.50;64.40;;;;;;5004305;28;20050;-74
2022/07/20 11:20:33;;;;;;;2.17;1.45;;;36.60;65.90;;;;;;5020793;28;20029;-75
2022/07/20 11:23:00;;;;;;;1.88;1.25;;;36.60;65.80;;;;;;5020824;28;20021;-76
2022/07/20 11:25:29;;;;;;;2.40;1.52;;;36.70;65.80;;;;;;5020983;28;20038;-72
2022/07/20 11:28:02;;;;;;;10.25;1.40;;;36.80;66.30;;;;;;5021842;28;20026;-73
2022/07/20 11:30:35;;;;;;;3.42;1.48;;;36.90;65.80;;;;;;5020168;28;20036;-72
2022/07/20 11:33:01;;;;;;;8.23;1.65;;;36.90;65.40;;;;;;5020737;28;21140;-72
2022/07/20 11:35:27;;;;;;;3.13;1.60;;;36.90;66.30;;;;;;5020382;28;20117;-72
2022/07/20 11:37:54;;;;;;;3.47;1.67;;;37.00;66.40;;;;;;5021792;28;20626;-71
2022/07/20 11:40:22;;;;;;;1.75;1.13;;;37.00;67.30;;;;;;5003085;28;20088;-72
2022/07/20 11:43:17;;;;;;;6.03;1.90;;;37.10;67.50;;;;;;5020939;28;20049;-70
2022/07/20 11:45:43;;;;;;;1.88;1.40;;;37.10;66.70;;;;;;4985394;28;20053;-73
2022/07/20 11:48:20;;;;;;;4.82;1.70;;;37.20;68.10;;;;;;5001633;28;20029;-71
2022/07/20 11:50:46;;;;;;;3.75;1.95;;;37.20;67.70;;;;;;5021088;28;20040;-71
2022/07/20 11:53:29;;;;;;;10.90;2.13;;;37.20;67.50;;;;;;5021718;28;20025;-71
2022/07/20 11:55:57;;;;;;;3.75;1.75;;;37.20;66.80;;;;;;5021413;28;20765;-69
2022/07/20 11:58:25;;;;;;;1.38;1.13;;;37.20;68.10;;;;;;5020498;28;20090;-74
2022/07/20 12:00:50;;;;;;;2.55;1.88;;;37.30;68.10;;;;;;5019397;28;20037;-70
2022/07/20 12:03:19;;;;;;;3.20;1.77;;;37.30;68.00;;;;;;5021255;28;20026;-72
2022/07/20 12:05:46;;;;;;;3.13;1.80;;;37.40;67.50;;;;;;5021129;28;20148;-76
2022/07/20 12:08:18;;;;;;;5.32;1.80;;;37.50;66.80;;;;;;5019707;28;20038;-72
2022/07/20 12:10:45;;;;;;;5.45;1.98;;;37.50;67.70;;;;;;5019582;28;20130;-72
2022/07/20 12:13:13;;;;;;;12.20;2.38;;;37.50;67.20;;;;;;5018195;28;20030;-72
2022/07/20 12:15:39;;;;;;;2.38;1.55;;;37.50;66.20;;;;;;5002592;28;20402;-71
2022/07/20 12:18:05;;;;;;;7.90;1.95;;;37.50;67.00;;;;;;5019888;28;20116;-72
2022/07/20 12:20:31;;;;;;;3.35;1.30;;;37.60;66.50;;;;;;5019592;28;20421;-75
2022/07/20 12:23:03;;;;;;;3.55;2.03;;;37.60;66.50;;;;;;5020140;28;20070;-72
2022/07/20 12:25:40;;;;;;;8.95;2.17;;;37.60;67.30;;;;;;5019517;28;20492;-74
2022/07/20 12:28:06;;;;;;;2.97;1.80;;;37.60;66.90;;;;;;5019799;28;20025;-72
2022/07/20 12:30:36;;;;;;;5.35;2.63;;;37.70;68.00;;;;;;5020573;28;20025;-73
2022/07/20 12:33:13;;;;;;;5.20;2.22;;;37.70;67.70;;;;;;5020919;28;20087;-71
2022/07/20 12:35:48;;;;;;;3.33;2.28;;;37.90;69.00;;;;;;5018047;28;20114;-73
2022/07/20 12:38:15;;;;;;;9.57;2.88;;;37.80;68.10;;;;;;5020721;28;20463;-71
2022/07/20 12:40:45;;;;;;;5.15;2.20;;;37.80;69.20;;;;;;5021672;28;20025;-73
2022/07/20 12:43:32;;;;;;;5.50;2.20;;;37.70;69.20;;;;;;5021708;28;20116;-70
2022/07/20 12:46:07;;;;;;;3.10;2.00;;;37.70;68.70;;;;;;5021367;28;20029;-71
2022/07/20 12:48:41;;;;;;;4.55;1.98;;;37.70;69.40;;;;;;5022166;28;20050;-73
2022/07/20 12:51:08;;;;;;;4.18;2.22;;;37.60;69.80;;;;;;5020913;28;20030;-69